Brockway, Montana
Current Conditions -  °F | °C
As of 6:35 PM on Wednesday 26 Nov 2014 (Local Time) from KGDV Reporting Station
Clear Clear  
Wind Chill:   Ceiling: Unl
Heat Index: 16°   Visibility: 10mi
Dew Point: 10°   Wind: 6mph
Humidity: 79%   Direction: 50°NE
Pressure: 30.31"   Gusts: NA
Location:  47.3°N, 105.77°W
Report Text: KGDV 270135Z AUTO 05005KT 10SM CLR M09/M12 A3031 RMK AO1
Loading
Personal Weather Stations






























Interactive Weather Map New forecast layout! Learn more

10-Day Weather Forecast

Advertisements
Track Severe Weather on mobile